createdAt,value
2022-08-10T00:01:54.723Z,98204.75
2022-08-10T00:04:23.358Z,98208.06
2022-08-10T00:06:52.888Z,98204.47
2022-08-10T00:09:22.407Z,98176.94
2022-08-10T00:11:49.432Z,98172.25
2022-08-10T00:14:16.292Z,98169.72
2022-08-10T00:16:42.994Z,98183.28
2022-08-10T00:19:09.909Z,98162.06
2022-08-10T00:21:37.047Z,98160.13
2022-08-10T00:24:04.171Z,98177.22
2022-08-10T00:27:51.681Z,98194.31
2022-08-10T00:29:17.554Z,98193.53
2022-08-10T00:31:58.324Z,98178.31
2022-08-10T00:34:30.350Z,98159.88
2022-08-10T00:36:57.443Z,98192.13
2022-08-10T00:39:24.289Z,98165.09
2022-08-10T00:42:01.911Z,98184.16
2022-08-10T00:44:42.705Z,98185.25
2022-08-10T00:47:35.578Z,98167.59
2022-08-10T00:49:58.664Z,98161.53
2022-08-10T00:52:27.228Z,98174.50
2022-08-10T00:54:55.094Z,98154.66
2022-08-10T00:57:22.180Z,98166.78
2022-08-10T00:59:59.455Z,98172.56
2022-08-10T01:02:32.168Z,98133.13
2022-08-10T01:05:02.862Z,98149.97
2022-08-10T01:07:38.808Z,98165.41
2022-08-10T01:10:23.945Z,98165.97
2022-08-10T01:12:57.031Z,98151.06
2022-08-10T01:15:45.619Z,98166.22
2022-08-10T01:18:37.684Z,98147.47
2022-08-10T01:21:23.668Z,98151.91
2022-08-10T01:23:50.597Z,98154.66
2022-08-10T01:26:49.405Z,98156.56
2022-08-10T01:29:47.780Z,98150.53
2022-08-10T01:32:17.709Z,98146.34
2022-08-10T01:35:13.360Z,98148.84
2022-08-10T01:37:52.390Z,98130.66
2022-08-10T01:40:25.201Z,98090.13
2022-08-10T01:42:55.020Z,98131.19
2022-08-10T01:45:28.310Z,98144.16
2022-08-10T01:48:16.648Z,98157.09
2022-08-10T01:50:59.933Z,98169.53
2022-08-10T01:53:40.187Z,98156.00
2022-08-10T01:56:11.634Z,98176.16
2022-08-10T01:58:39.671Z,98172.84
2022-08-10T02:01:09.795Z,98185.81
2022-08-10T02:04:01.375Z,98163.75
2022-08-10T02:06:29.537Z,98172.81
2022-08-10T02:09:06.448Z,98186.31
2022-08-10T02:12:06.097Z,98189.63
2022-08-10T02:14:33.217Z,98193.19
2022-08-10T02:17:03.840Z,98188.22
2022-08-10T02:19:32.146Z,98198.13
2022-08-10T02:22:35.645Z,98198.69
2022-08-10T02:24:48.882Z,98195.91
2022-08-10T02:27:16.495Z,98181.28
2022-08-10T02:29:45.484Z,98198.13
2022-08-10T02:32:32.929Z,98161.69
2022-08-10T02:35:06.512Z,98199.19
2022-08-10T02:37:37.684Z,98216.56
2022-08-10T02:40:05.124Z,98201.06
2022-08-10T02:45:24.535Z,98198.50
2022-08-10T02:45:38.462Z,98224.94
2022-08-10T02:48:32.768Z,98210.03
2022-08-10T02:51:05.433Z,98219.63
2022-08-10T02:53:54.477Z,98185.66
2022-08-10T02:56:41.989Z,98222.63
2022-08-10T02:59:11.909Z,98212.09
2022-08-10T03:01:43.549Z,98197.41
2022-08-10T03:04:57.205Z,98212.25
2022-08-10T03:07:18.233Z,98182.94
2022-08-10T03:10:08.430Z,98212.56
2022-08-10T03:12:42.527Z,98219.19
2022-08-10T03:15:15.557Z,98224.97
2022-08-10T03:17:58.016Z,98227.19
2022-08-10T03:20:39.753Z,98213.97
2022-08-10T03:23:13.010Z,98226.06
2022-08-10T03:25:40.516Z,98228.81
2022-08-10T03:28:08.566Z,98256.72
2022-08-10T03:30:36.198Z,98213.41
2022-08-10T03:33:08.697Z,98250.16
2022-08-10T03:35:35.498Z,98251.84
2022-08-10T03:38:03.413Z,98228.88
2022-08-10T03:40:45.151Z,98264.75
2022-08-10T03:43:16.886Z,98237.31
2022-08-10T03:45:54.810Z,98257.50
2022-08-10T03:48:33.140Z,98239.53
2022-08-10T03:51:13.589Z,98249.03
2022-08-10T03:54:04.307Z,98237.44
2022-08-10T03:56:31.811Z,98245.19
2022-08-10T03:59:00.056Z,98256.84
2022-08-10T04:02:43.557Z,98247.00
2022-08-10T04:04:17.729Z,98281.16
2022-08-10T04:06:46.109Z,98264.97
2022-08-10T04:09:17.918Z,98258.44
2022-08-10T04:11:44.850Z,98256.03
2022-08-10T04:14:47.167Z,98268.31
2022-08-10T04:16:58.316Z,98263.13
2022-08-10T04:19:27.306Z,98308.72
2022-08-10T04:22:08.694Z,98281.19
2022-08-10T04:24:38.191Z,98289.56
2022-08-10T04:27:05.338Z,98293.78
2022-08-10T04:29:32.571Z,98302.06
2022-08-10T04:32:00.627Z,98312.31
2022-08-10T04:34:31.928Z,98285.78
2022-08-10T04:37:08.622Z,98329.72
2022-08-10T04:39:36.533Z,98309.88
2022-08-10T04:42:04.241Z,98325.63
2022-08-10T04:44:31.142Z,98294.72
2022-08-10T04:46:59.529Z,98291.69
2022-08-10T04:49:53.885Z,98327.09
2022-08-10T04:52:14.234Z,98298.94
2022-08-10T04:54:41.714Z,98309.19
2022-08-10T04:57:09.104Z,98281.00
2022-08-10T04:59:36.175Z,98297.31
2022-08-10T05:02:21.177Z,98311.66
2022-08-10T05:04:49.561Z,98320.53
2022-08-10T05:07:18.494Z,98293.75
2022-08-10T05:10:04.781Z,98326.03
2022-08-10T05:12:38.203Z,98315.25
2022-08-10T05:15:07.334Z,98319.63
2022-08-10T05:17:35.879Z,98315.47
2022-08-10T05:20:07.464Z,98320.97
2022-08-10T05:22:40.839Z,98322.34
2022-08-10T05:25:13.279Z,98320.69
2022-08-10T05:27:40.727Z,98348.28
2022-08-10T05:30:08.966Z,98323.09
2022-08-10T05:32:57.841Z,98336.47
2022-08-10T05:35:23.838Z,98328.94
2022-08-10T05:38:10.248Z,98332.63
2022-08-10T05:40:42.436Z,98327.22
2022-08-10T05:43:09.803Z,98340.72
2022-08-10T05:46:16.949Z,98348.06
2022-08-10T05:48:57.296Z,98324.59
2022-08-10T05:51:11.510Z,98327.03
2022-08-10T05:54:02.378Z,98352.88
2022-08-10T05:56:26.553Z,98343.56
2022-08-10T05:59:14.841Z,98352.91
2022-08-10T06:01:45.273Z,98357.72
2022-08-10T06:04:40.798Z,98373.56
2022-08-10T06:07:09.037Z,98366.66
2022-08-10T06:09:59.367Z,98345.06
2022-08-10T06:12:31.324Z,98365.34
2022-08-10T06:15:04.069Z,98356.13
2022-08-10T06:17:32.922Z,98346.13
2022-08-10T06:20:01.216Z,98363.44
2022-08-10T06:22:30.336Z,98339.56
2022-08-10T06:25:32.099Z,98367.88
2022-08-10T06:27:47.168Z,98339.63
2022-08-10T06:30:20.136Z,98351.69
2022-08-10T06:32:49.812Z,98353.56
2022-08-10T06:35:17.555Z,98338.00
2022-08-10T06:37:50.796Z,98356.69
2022-08-10T06:40:19.131Z,98347.91
2022-08-10T06:42:50.218Z,98331.91
2022-08-10T06:45:21.814Z,98331.75
2022-08-10T06:47:56.066Z,98336.78
2022-08-10T06:50:34.866Z,98335.13
2022-08-10T06:53:20.774Z,98363.88
2022-08-10T06:55:58.125Z,98340.81
2022-08-10T06:58:29.442Z,98354.72
2022-08-10T07:00:57.039Z,98327.41
2022-08-10T07:03:31.587Z,98368.91
2022-08-10T07:06:00.050Z,98357.44
2022-08-10T07:08:31.469Z,98351.78
2022-08-10T07:10:58.877Z,98338.97
2022-08-10T07:14:15.289Z,98360.47
2022-08-10T07:16:14.626Z,98376.75
2022-08-10T07:18:43.004Z,98318.97
2022-08-10T07:21:12.414Z,98377.47
2022-08-10T07:23:58.155Z,98357.59
2022-08-10T07:26:29.071Z,98357.78
2022-08-10T07:28:57.022Z,98376.34
2022-08-10T07:31:29.630Z,98372.13
2022-08-10T07:34:29.576Z,98364.56
2022-08-10T07:37:02.341Z,98359.66
2022-08-10T07:40:02.645Z,98351.06
2022-08-10T07:42:22.123Z,98365.09
2022-08-10T07:44:50.618Z,98355.47
2022-08-10T07:47:52.345Z,98367.38
2022-08-10T07:50:17.682Z,98353.97
2022-08-10T07:52:46.410Z,98362.94
2022-08-10T07:55:16.752Z,98358.19
2022-08-10T07:57:46.713Z,98376.53
2022-08-10T08:00:14.858Z,98371.06
2022-08-10T08:02:51.082Z,98359.03
2022-08-10T08:05:53.721Z,98370.88
2022-08-10T08:08:10.004Z,98349.44
2022-08-10T08:10:38.584Z,98368.94
2022-08-10T08:13:05.810Z,98339.59
2022-08-10T08:16:19.753Z,98351.72
2022-08-10T08:18:25.555Z,98354.47
2022-08-10T08:20:54.457Z,98336.00
2022-08-10T08:24:04.513Z,98373.84
2022-08-10T08:26:11.577Z,98362.53
2022-08-10T08:28:45.686Z,98352.72
2022-08-10T08:31:18.012Z,98323.63
2022-08-10T08:33:47.732Z,98362.69
2022-08-10T08:36:17.335Z,98345.81
2022-08-10T08:38:45.522Z,98363.03
2022-08-10T08:41:40.226Z,98350.28
2022-08-10T08:44:21.610Z,98353.84
2022-08-10T08:46:58.809Z,98370.34
2022-08-10T08:50:09.633Z,98341.56
2022-08-10T08:52:53.919Z,98355.00
2022-08-10T08:56:06.331Z,98348.03
2022-08-10T08:58:52.274Z,98354.41
2022-08-10T09:02:10.465Z,98350.00
2022-08-10T09:04:59.115Z,98341.28
2022-08-10T09:08:10.541Z,98360.50
2022-08-10T09:10:52.211Z,98346.41
2022-08-10T09:13:31.031Z,98350.00
2022-08-10T09:16:32.647Z,98347.97
2022-08-10T09:19:21.185Z,98325.56
2022-08-10T09:22:19.177Z,98324.44
2022-08-10T09:24:56.975Z,98342.22
2022-08-10T09:27:43.313Z,98331.59
2022-08-10T09:30:13.526Z,98328.56
2022-08-10T09:36:24.249Z,98331.13
2022-08-10T09:36:34.081Z,98341.47
2022-08-10T09:40:06.937Z,98334.63
2022-08-10T09:42:32.597Z,98325.66
2022-08-10T09:45:30.312Z,98332.16
2022-08-10T09:48:34.557Z,98345.78
2022-08-10T09:54:16.561Z,98344.75
2022-08-10T09:57:17.965Z,98337.81
2022-08-10T10:00:01.285Z,98322.19
2022-08-10T10:02:50.927Z,98314.81
2022-08-10T10:05:32.764Z,98333.22
2022-08-10T10:08:42.197Z,98332.63
2022-08-10T10:11:15.274Z,98339.00
2022-08-10T10:14:14.059Z,98326.41
2022-08-10T10:17:17.162Z,98320.59
2022-08-10T10:19:43.939Z,98330.88
2022-08-10T10:22:26.332Z,98312.81
2022-08-10T10:25:19.490Z,98301.09
2022-08-10T10:28:19.069Z,98314.25
2022-08-10T10:31:02.113Z,98306.41
2022-08-10T10:34:05.155Z,98274.69
2022-08-10T10:36:33.256Z,98290.41
2022-08-10T10:39:01.599Z,98288.84
2022-08-10T10:41:56.122Z,98307.09
2022-08-10T10:44:50.090Z,98311.91
2022-08-10T10:47:53.743Z,98281.31
2022-08-10T10:50:29.943Z,98303.81
2022-08-10T10:53:02.703Z,98325.84
2022-08-10T10:56:13.592Z,98306.25
2022-08-10T10:58:41.223Z,98295.88
2022-08-10T11:01:23.148Z,98323.59
2022-08-10T11:04:30.061Z,98302.38
2022-08-10T11:07:38.506Z,98309.97
2022-08-10T11:10:32.884Z,98293.63
2022-08-10T11:14:27.630Z,98313.28
2022-08-10T11:16:36.855Z,98310.31
2022-08-10T11:20:02.271Z,98320.66
2022-08-10T11:22:36.716Z,98312.63
2022-08-10T11:25:29.945Z,98310.72
2022-08-10T11:28:04.341Z,98311.25
2022-08-10T11:30:46.036Z,98293.09
2022-08-10T11:34:11.335Z,98313.34
2022-08-10T11:36:53.747Z,98303.94
2022-08-10T11:39:49.712Z,98289.47
2022-08-10T11:42:36.198Z,98318.50
2022-08-10T11:45:16.274Z,98310.47
2022-08-10T11:47:53.339Z,98314.22
2022-08-10T11:50:37.119Z,98280.78
2022-08-10T11:53:06.798Z,98307.13
2022-08-10T11:55:34.881Z,98306.72
2022-08-10T11:58:41.402Z,98307.38
2022-08-10T12:01:11.328Z,98317.06
2022-08-10T12:03:40.159Z,98287.25
2022-08-10T12:06:13.502Z,98305.66
2022-08-10T12:10:04.019Z,98291.03
2022-08-10T12:11:33.485Z,98271.97
2022-08-10T12:14:22.807Z,98299.34
2022-08-10T12:17:17.806Z,98292.16
2022-08-10T12:20:01.997Z,98298.56
2022-08-10T12:22:49.067Z,98300.84
2022-08-10T12:25:55.724Z,98260.78
2022-08-10T12:28:17.525Z,98288.28
2022-08-10T12:30:56.390Z,98272.63
2022-08-10T12:33:26.863Z,98274.53
2022-08-10T12:36:17.343Z,98281.47
2022-08-10T12:38:45.844Z,98277.41
2022-08-10T12:41:43.490Z,98277.72
2022-08-10T12:44:22.597Z,98275.81
2022-08-10T12:46:51.379Z,98280.63
2022-08-10T12:49:26.445Z,98264.03
2022-08-10T12:52:20.266Z,98278.63
2022-08-10T12:54:48.046Z,98236.75
2022-08-10T12:57:17.447Z,98260.75
2022-08-10T12:59:49.779Z,98258.94
2022-08-10T13:02:38.733Z,98247.22
2022-08-10T13:05:11.012Z,98268.69
2022-08-10T13:08:03.865Z,98248.06
2022-08-10T13:10:29.441Z,98228.84
2022-08-10T13:12:58.502Z,98248.63
2022-08-10T13:15:50.684Z,98235.75
2022-08-10T13:18:25.662Z,98251.94
2022-08-10T13:20:55.135Z,98230.66
2022-08-10T13:23:25.395Z,98238.31
2022-08-10T13:25:55.010Z,98253.78
2022-08-10T13:28:39.922Z,98220.81
2022-08-10T13:31:16.763Z,98224.41
2022-08-10T13:34:41.632Z,98240.47
2022-08-10T13:36:47.593Z,98229.75
2022-08-10T13:39:17.988Z,98241.09
2022-08-10T13:41:46.766Z,98219.84
2022-08-10T13:44:17.793Z,98226.56
2022-08-10T13:46:54.214Z,98236.06
2022-08-10T13:49:24.365Z,98219.78
2022-08-10T13:51:57.221Z,98215.88
2022-08-10T13:54:28.067Z,98224.28
2022-08-10T13:56:57.063Z,98244.91
2022-08-10T14:00:36.182Z,98231.81
2022-08-10T14:02:22.948Z,98244.38
2022-08-10T14:04:50.803Z,98228.75
2022-08-10T14:07:18.383Z,98228.75
2022-08-10T14:09:47.686Z,98219.47
2022-08-10T14:12:16.632Z,98199.06
2022-08-10T14:14:52.957Z,98205.28
2022-08-10T14:17:22.697Z,98221.63
2022-08-10T14:19:58.796Z,98192.59
2022-08-10T14:22:40.401Z,98224.22
2022-08-10T14:25:09.987Z,98235.44
2022-08-10T14:28:02.500Z,98212.38
2022-08-10T14:30:30.927Z,98219.69
2022-08-10T14:33:00.432Z,98217.63
2022-08-10T14:36:18.896Z,98201.16
2022-08-10T14:38:19.931Z,98201.06
2022-08-10T14:40:52.628Z,98209.50
2022-08-10T14:43:28.613Z,98186.59
2022-08-10T14:46:01.387Z,98190.84
2022-08-10T14:48:41.076Z,98202.56
2022-08-10T14:51:10.439Z,98191.94
2022-08-10T14:53:41.255Z,98215.06
2022-08-10T14:56:17.275Z,98198.75
2022-08-10T14:59:06.243Z,98224.00
2022-08-10T15:02:01.340Z,98207.66
2022-08-10T15:04:28.499Z,98201.53
2022-08-10T15:07:01.178Z,98212.38
2022-08-10T15:10:00.057Z,98245.84
2022-08-10T15:12:26.642Z,98217.69
2022-08-10T15:15:00.596Z,98238.38
2022-08-10T15:17:34.739Z,98224.88
2022-08-10T15:20:13.699Z,98210.53
2022-08-10T15:22:50.428Z,98225.16
2022-08-10T15:25:24.315Z,98218.50
2022-08-10T15:28:05.038Z,98234.56
2022-08-10T15:30:45.236Z,98205.47
2022-08-10T15:34:04.820Z,98230.50
2022-08-10T15:37:30.486Z,98229.69
2022-08-10T15:40:21.941Z,98225.94
2022-08-10T15:42:34.143Z,98221.69
2022-08-10T15:45:01.209Z,98214.47
2022-08-10T15:48:02.389Z,98227.25
2022-08-10T15:50:39.807Z,98194.47
2022-08-10T15:53:49.210Z,98214.81
2022-08-10T15:56:35.627Z,98224.88
2022-08-10T15:59:09.814Z,98215.63
2022-08-10T16:02:12.980Z,98233.19
2022-08-10T16:04:50.949Z,98213.19
2022-08-10T16:07:45.365Z,98232.06
2022-08-10T16:10:26.622Z,98238.31
2022-08-10T16:13:00.429Z,98224.91
2022-08-10T16:15:29.152Z,98215.25
2022-08-10T16:18:17.340Z,98227.28
2022-08-10T16:21:08.196Z,98234.88
2022-08-10T16:23:41.994Z,98243.75
2022-08-10T16:26:17.569Z,98241.38
2022-08-10T16:28:56.221Z,98236.94
2022-08-10T16:31:25.664Z,98249.41
2022-08-10T16:33:55.356Z,98226.66
2022-08-10T16:36:28.993Z,98205.09
2022-08-10T16:38:57.696Z,98225.53
2022-08-10T16:42:00.742Z,98215.75
2022-08-10T16:44:19.966Z,98231.19
2022-08-10T16:46:48.192Z,98219.53
2022-08-10T16:49:17.990Z,98237.22
2022-08-10T16:51:49.638Z,98231.25
2022-08-10T16:54:27.000Z,98273.56
2022-08-10T16:57:00.785Z,98244.09
2022-08-10T16:59:31.277Z,98263.94
2022-08-10T17:02:01.197Z,98232.56
2022-08-10T17:04:30.280Z,98239.78
2022-08-10T17:06:59.649Z,98259.19
2022-08-10T17:09:32.165Z,98248.00
2022-08-10T17:12:04.410Z,98249.13
2022-08-10T17:14:31.497Z,98241.19
2022-08-10T17:17:02.252Z,98245.94
2022-08-10T17:19:32.045Z,98272.97
2022-08-10T17:22:02.357Z,98273.06
2022-08-10T17:24:34.317Z,98278.88
2022-08-10T17:28:05.882Z,98250.25
2022-08-10T17:30:04.400Z,98272.88
2022-08-10T17:32:44.448Z,98269.94
2022-08-10T17:35:22.463Z,98280.69
2022-08-10T17:38:08.689Z,98257.22
2022-08-10T17:40:49.685Z,98259.47
2022-08-10T17:43:46.305Z,98296.75
2022-08-10T17:46:15.640Z,98255.97
2022-08-10T17:48:44.453Z,98274.13
2022-08-10T17:51:15.651Z,98302.81
2022-08-10T17:53:46.837Z,98268.38
2022-08-10T17:56:15.964Z,98292.41
2022-08-10T17:58:50.956Z,98297.94
2022-08-10T18:01:40.293Z,98272.81
2022-08-10T18:04:18.035Z,98279.50
2022-08-10T18:06:52.195Z,98289.72
2022-08-10T18:09:30.311Z,98288.63
2022-08-10T18:12:01.589Z,98307.41
2022-08-10T18:14:33.992Z,98304.06
2022-08-10T18:17:10.935Z,98323.41
2022-08-10T18:19:40.287Z,98312.63
2022-08-10T18:22:11.514Z,98273.19
2022-08-10T18:24:39.518Z,98310.75
2022-08-10T18:27:07.948Z,98288.09
2022-08-10T18:29:40.265Z,98290.88
2022-08-10T18:32:08.601Z,98305.75
2022-08-10T18:34:38.103Z,98324.25
2022-08-10T18:37:08.695Z,98280.94
2022-08-10T18:39:38.848Z,98304.41
2022-08-10T18:42:35.526Z,98338.09
2022-08-10T18:45:09.226Z,98313.53
2022-08-10T18:47:58.890Z,98311.88
2022-08-10T18:50:32.457Z,98308.59
2022-08-10T18:53:15.428Z,98331.47
2022-08-10T18:56:08.765Z,98332.31
2022-08-10T18:58:50.013Z,98329.03
2022-08-10T19:01:17.749Z,98333.97
2022-08-10T19:04:06.290Z,98340.38
2022-08-10T19:06:52.287Z,98343.13
2022-08-10T19:09:42.162Z,98338.44
2022-08-10T19:12:39.488Z,98338.97
2022-08-10T19:15:18.104Z,98318.84
2022-08-10T19:18:12.006Z,98341.78
2022-08-10T19:20:51.226Z,98324.09
2022-08-10T19:23:30.286Z,98346.47
2022-08-10T19:26:43.750Z,98337.34
2022-08-10T19:30:08.308Z,98345.94
2022-08-10T19:32:25.222Z,98323.56
2022-08-10T19:35:11.069Z,98324.66
2022-08-10T19:38:00.788Z,98324.66
2022-08-10T19:40:51.500Z,98328.53
2022-08-10T19:43:59.170Z,98314.69
2022-08-10T19:47:04.676Z,98330.97
2022-08-10T19:49:57.585Z,98331.25
2022-08-10T19:52:43.298Z,98329.59
2022-08-10T19:55:25.283Z,98331.81
2022-08-10T19:57:58.793Z,98321.03
2022-08-10T20:00:52.370Z,98317.72
2022-08-10T20:03:24.721Z,98300.06
2022-08-10T20:06:18.943Z,98338.72
2022-08-10T20:08:44.432Z,98332.34
2022-08-10T20:11:46.392Z,98332.34
2022-08-10T20:14:39.199Z,98340.91
2022-08-10T20:17:27.539Z,98327.94
2022-08-10T20:20:02.119Z,98316.88
2022-08-10T20:22:36.287Z,98317.41
2022-08-10T20:25:16.710Z,98353.06
2022-08-10T20:28:02.318Z,98343.66
2022-08-10T20:30:34.636Z,98362.72
2022-08-10T20:33:23.386Z,98333.16
2022-08-10T20:36:05.363Z,98345.59
2022-08-10T20:38:53.668Z,98354.41
2022-08-10T20:41:46.687Z,98357.97
2022-08-10T20:44:39.399Z,98347.19
2022-08-10T20:47:18.111Z,98333.06
2022-08-10T20:50:03.049Z,98345.00
2022-08-10T20:52:31.537Z,98320.66
2022-08-10T20:55:02.181Z,98312.59
2022-08-10T20:57:56.474Z,98347.97
2022-08-10T21:00:37.348Z,98336.66
2022-08-10T21:03:25.134Z,98343.00
2022-08-10T21:06:35.991Z,98342.53
2022-08-10T21:09:18.591Z,98346.41
2022-08-10T21:12:23.578Z,98348.31
2022-08-10T21:15:07.507Z,98349.34
2022-08-10T21:17:39.463Z,98349.63
2022-08-10T21:20:18.319Z,98350.44
2022-08-10T21:22:57.776Z,98332.78
2022-08-10T21:25:46.989Z,98327.00
2022-08-10T21:28:49.809Z,98339.47
2022-08-10T21:31:38.730Z,98345.19
2022-08-10T21:34:55.270Z,98354.88
2022-08-10T21:37:56.598Z,98344.63
2022-08-10T21:44:39.122Z,98352.38
2022-08-10T21:47:43.393Z,98336.34
2022-08-10T21:50:45.837Z,98327.72
2022-08-10T21:53:47.782Z,98360.06
2022-08-10T21:56:46.151Z,98343.00
2022-08-10T21:59:45.910Z,98345.75
2022-08-10T22:02:40.626Z,98347.09
2022-08-10T22:05:39.097Z,98349.03
2022-08-10T22:08:27.142Z,98361.13
2022-08-10T22:11:16.227Z,98356.97
2022-08-10T22:14:05.050Z,98338.72
2022-08-10T22:18:10.595Z,98329.88
2022-08-10T22:20:25.139Z,98323.13
2022-08-10T22:23:23.695Z,98346.63
2022-08-10T22:26:34.403Z,98349.69
2022-08-10T22:29:43.105Z,98335.47
2022-08-10T22:31:29.012Z,98351.53
2022-08-10T22:32:50.372Z,98341.00
2022-08-10T22:35:54.327Z,98349.50
2022-08-10T22:40:07.380Z,98354.97
2022-08-10T22:42:59.222Z,98352.22
2022-08-10T22:45:49.264Z,98339.44
2022-08-10T22:48:34.798Z,98329.44
2022-08-10T22:51:17.478Z,98329.94
2022-08-10T22:54:31.874Z,98330.97
2022-08-10T22:57:21.359Z,98335.50
2022-08-10T22:59:49.928Z,98340.75
2022-08-10T23:02:33.901Z,98331.84
2022-08-10T23:05:06.900Z,98339.94
2022-08-10T23:07:42.129Z,98285.19
2022-08-10T23:10:11.997Z,98312.00
2022-08-10T23:12:47.835Z,98340.75
2022-08-10T23:15:43.845Z,98334.72
2022-08-10T23:18:36.479Z,98341.34
2022-08-10T23:21:03.716Z,98315.28
2022-08-10T23:23:36.664Z,98326.88
2022-08-10T23:26:05.540Z,98301.41
2022-08-10T23:28:58.642Z,98318.28
2022-08-10T23:32:01.057Z,98305.81
2022-08-10T23:34:15.304Z,98315.75
2022-08-10T23:36:42.775Z,98320.56
2022-08-10T23:39:26.343Z,98287.47
2022-08-10T23:42:06.915Z,98283.16
2022-08-10T23:44:38.363Z,98321.25
2022-08-10T23:47:06.243Z,98303.31
2022-08-10T23:49:35.636Z,98305.25
2022-08-10T23:52:29.608Z,98316.59
2022-08-10T23:55:08.957Z,98310.19
2022-08-10T23:57:42.233Z,98322.31
